sensor_id;sensor_type;location;lat;lon;timestamp;pressure;altitude;pressure_sealevel;temperature;humidity
85315;BME280;75718;50.886;11.656;2024-01-30T00:00:32;100103.78;;;5.27;62.91
85315;BME280;75718;50.886;11.656;2024-01-30T00:02:57;100098.63;;;5.38;62.52
85315;BME280;75718;50.886;11.656;2024-01-30T00:05:22;100099.47;;;5.29;63.02
85315;BME280;75718;50.886;11.656;2024-01-30T00:07:47;100095.19;;;5.41;62.32
85315;BME280;75718;50.886;11.656;2024-01-30T00:10:13;100106.44;;;5.37;62.05
85315;BME280;75718;50.886;11.656;2024-01-30T00:12:38;100100.31;;;5.29;62.72
85315;BME280;75718;50.886;11.656;2024-01-30T00:15:04;100095.91;;;5.19;63.59
85315;BME280;75718;50.886;11.656;2024-01-30T00:17:30;100098.56;;;5.28;62.78
85315;BME280;75718;50.886;11.656;2024-01-30T00:19:56;100093.38;;;5.28;62.66
85315;BME280;75718;50.886;11.656;2024-01-30T00:22:21;100093.56;;;5.59;61.21
85315;BME280;75718;50.886;11.656;2024-01-30T00:24:46;100088.47;;;5.76;60.63
85315;BME280;75718;50.886;11.656;2024-01-30T00:27:11;100085.06;;;5.89;60.94
85315;BME280;75718;50.886;11.656;2024-01-30T00:29:37;100088.50;;;5.83;60.27
85315;BME280;75718;50.886;11.656;2024-01-30T00:32:02;100090.13;;;5.68;61.97
85315;BME280;75718;50.886;11.656;2024-01-30T00:34:27;100087.44;;;5.45;63.04
85315;BME280;75718;50.886;11.656;2024-01-30T00:36:53;100082.13;;;5.28;62.89
85315;BME280;75718;50.886;11.656;2024-01-30T00:39:18;100082.13;;;5.25;63.52
85315;BME280;75718;50.886;11.656;2024-01-30T00:41:44;100082.97;;;5.27;63.96
85315;BME280;75718;50.886;11.656;2024-01-30T00:44:10;100080.41;;;5.30;63.12
85315;BME280;75718;50.886;11.656;2024-01-30T00:46:35;100083.03;;;5.34;62.83
85315;BME280;75718;50.886;11.656;2024-01-30T00:49:00;100077.97;;;5.65;61.51
85315;BME280;75718;50.886;11.656;2024-01-30T00:51:26;100073.59;;;5.54;62.21
85315;BME280;75718;50.886;11.656;2024-01-30T00:53:51;100077.09;;;5.56;61.76
85315;BME280;75718;50.886;11.656;2024-01-30T00:56:16;100074.53;;;5.66;60.36
85315;BME280;75718;50.886;11.656;2024-01-30T00:58:43;100075.41;;;5.74;60.22
85315;BME280;75718;50.886;11.656;2024-01-30T01:01:09;100077.97;;;5.61;61.46
85315;BME280;75718;50.886;11.656;2024-01-30T01:03:34;100078.81;;;5.57;61.66
85315;BME280;75718;50.886;11.656;2024-01-30T01:05:59;100067.53;;;5.53;62.00
85315;BME280;75718;50.886;11.656;2024-01-30T01:08:25;100071.03;;;5.60;61.28
85315;BME280;75718;50.886;11.656;2024-01-30T01:10:50;100069.31;;;5.62;60.99
85315;BME280;75718;50.886;11.656;2024-01-30T01:13:15;100066.63;;;5.47;62.04
85315;BME280;75718;50.886;11.656;2024-01-30T01:15:41;100069.19;;;5.39;62.65
85315;BME280;75718;50.886;11.656;2024-01-30T01:18:06;100069.19;;;5.35;63.23
85315;BME280;75718;50.886;11.656;2024-01-30T01:20:31;100067.38;;;5.27;62.31
85315;BME280;75718;50.886;11.656;2024-01-30T01:22:57;100064.72;;;5.19;63.46
85315;BME280;75718;50.886;11.656;2024-01-30T01:25:22;100059.41;;;5.00;63.81
85315;BME280;75718;50.886;11.656;2024-01-30T01:27:47;100071.72;;;5.25;62.82
85315;BME280;75718;50.886;11.656;2024-01-30T01:30:16;100068.50;;;5.73;60.23
85315;BME280;75718;50.886;11.656;2024-01-30T01:32:49;100057.13;;;5.49;61.85
85315;BME280;75718;50.886;11.656;2024-01-30T01:35:24;100068.34;;;5.37;61.91
85315;BME280;75718;50.886;11.656;2024-01-30T01:37:51;100057.03;;;5.30;62.54
85315;BME280;75718;50.886;11.656;2024-01-30T01:40:24;100057.75;;;5.09;62.95
85315;BME280;75718;50.886;11.656;2024-01-30T01:42:50;100058.56;;;5.04;63.49
85315;BME280;75718;50.886;11.656;2024-01-30T01:45:17;100060.34;;;5.08;62.69
85315;BME280;75718;50.886;11.656;2024-01-30T01:47:43;100057.72;;;5.00;63.42
85315;BME280;75718;50.886;11.656;2024-01-30T01:50:11;100058.47;;;4.87;63.61
85315;BME280;75718;50.886;11.656;2024-01-30T01:52:37;100057.56;;;4.81;64.49
85315;BME280;75718;50.886;11.656;2024-01-30T01:55:03;100065.22;;;4.68;64.69
85315;BME280;75718;50.886;11.656;2024-01-30T01:57:29;100068.66;;;4.62;64.63
85315;BME280;75718;50.886;11.656;2024-01-30T01:59:54;100055.13;;;5.03;62.93
85315;BME280;75718;50.886;11.656;2024-01-30T02:02:20;100056.81;;;5.01;63.58
85315;BME280;75718;50.886;11.656;2024-01-30T02:04:46;100051.53;;;4.83;64.31
85315;BME280;75718;50.886;11.656;2024-01-30T02:07:11;100057.38;;;4.59;65.12
85315;BME280;75718;50.886;11.656;2024-01-30T02:09:36;100058.19;;;4.52;65.52
85315;BME280;75718;50.886;11.656;2024-01-30T02:12:02;100059.03;;;4.48;65.55
85315;BME280;75718;50.886;11.656;2024-01-30T02:14:27;100060.59;;;4.31;65.63
85315;BME280;75718;50.886;11.656;2024-01-30T02:16:52;100061.34;;;4.18;66.12
85315;BME280;75718;50.886;11.656;2024-01-30T02:19:17;100056.91;;;4.10;66.63
85315;BME280;75718;50.886;11.656;2024-01-30T02:21:43;100047.56;;;4.28;65.61
85315;BME280;75718;50.886;11.656;2024-01-30T02:24:09;100057.84;;;4.17;66.28
85315;BME280;75718;50.886;11.656;2024-01-30T02:26:34;100050.22;;;4.31;65.79
85315;BME280;75718;50.886;11.656;2024-01-30T02:29:00;100052.84;;;4.34;65.19
85315;BME280;75718;50.886;11.656;2024-01-30T02:31:25;100051.06;;;4.30;65.49
85315;BME280;75718;50.886;11.656;2024-01-30T02:33:51;100061.28;;;4.15;65.95
85315;BME280;75718;50.886;11.656;2024-01-30T02:36:16;100056.84;;;4.02;67.33
85315;BME280;75718;50.886;11.656;2024-01-30T02:38:41;100062.66;;;3.82;67.49
85315;BME280;75718;50.886;11.656;2024-01-30T02:41:06;100056.66;;;3.86;67.39
85315;BME280;75718;50.886;11.656;2024-01-30T02:43:32;100058.50;;;3.96;67.53
85315;BME280;75718;50.886;11.656;2024-01-30T02:45:57;100048.91;;;3.89;67.17
85315;BME280;75718;50.886;11.656;2024-01-30T02:48:24;100061.81;;;3.84;67.18
85315;BME280;75718;50.886;11.656;2024-01-30T02:50:50;100061.69;;;3.72;68.20
85315;BME280;75718;50.886;11.656;2024-01-30T02:53:15;100051.13;;;3.59;68.87
85315;BME280;75718;50.886;11.656;2024-01-30T02:55:40;100050.38;;;3.67;67.91
85315;BME280;75718;50.886;11.656;2024-01-30T02:58:05;100053.91;;;3.72;67.99
85315;BME280;75718;50.886;11.656;2024-01-30T03:00:31;100051.44;;;3.83;67.18
85315;BME280;75718;50.886;11.656;2024-01-30T03:02:57;100057.41;;;3.76;67.71
85315;BME280;75718;50.886;11.656;2024-01-30T03:05:23;100043.75;;;3.93;66.83
85315;BME280;75718;50.886;11.656;2024-01-30T03:07:48;100046.25;;;3.83;67.65
85315;BME280;75718;50.886;11.656;2024-01-30T03:10:14;100052.16;;;3.71;67.77
85315;BME280;75718;50.886;11.656;2024-01-30T03:12:39;100052.03;;;3.59;67.99
85315;BME280;75718;50.886;11.656;2024-01-30T03:15:04;100041.91;;;3.82;67.77
85315;BME280;75718;50.886;11.656;2024-01-30T03:17:30;100043.66;;;3.84;68.00
85315;BME280;75718;50.886;11.656;2024-01-30T03:19:55;100047.88;;;3.75;68.81
85315;BME280;75718;50.886;11.656;2024-01-30T03:22:20;100040.00;;;3.66;68.79
85315;BME280;75718;50.886;11.656;2024-01-30T03:24:46;100037.38;;;3.63;68.77
85315;BME280;75718;50.886;11.656;2024-01-30T03:27:11;100025.19;;;3.56;68.93
85315;BME280;75718;50.886;11.656;2024-01-30T03:29:36;100032.34;;;3.75;68.29
85315;BME280;75718;50.886;11.656;2024-01-30T03:32:02;100034.09;;;3.76;67.78
85315;BME280;75718;50.886;11.656;2024-01-30T03:34:29;100030.47;;;3.65;68.50
85315;BME280;75718;50.886;11.656;2024-01-30T03:36:54;100031.44;;;3.73;67.82
85315;BME280;75718;50.886;11.656;2024-01-30T03:39:19;100023.63;;;3.70;68.57
85315;BME280;75718;50.886;11.656;2024-01-30T03:41:44;100020.28;;;3.78;66.98
85315;BME280;75718;50.886;11.656;2024-01-30T03:44:10;100017.72;;;3.81;67.47
85315;BME280;75718;50.886;11.656;2024-01-30T03:46:35;100011.50;;;3.69;68.05
85315;BME280;75718;50.886;11.656;2024-01-30T03:49:00;100008.94;;;3.70;68.33
85315;BME280;75718;50.886;11.656;2024-01-30T03:51:26;100014.09;;;3.67;68.04
85315;BME280;75718;50.886;11.656;2024-01-30T03:53:51;100005.47;;;3.70;68.02
85315;BME280;75718;50.886;11.656;2024-01-30T03:56:16;100019.88;;;3.44;68.77
85315;BME280;75718;50.886;11.656;2024-01-30T03:58:42;100015.53;;;3.43;69.42
85315;BME280;75718;50.886;11.656;2024-01-30T04:01:07;100013.75;;;3.38;69.87
85315;BME280;75718;50.886;11.656;2024-01-30T04:03:32;100011.84;;;3.23;70.29
85315;BME280;75718;50.886;11.656;2024-01-30T04:05:58;100014.22;;;3.07;70.38
85315;BME280;75718;50.886;11.656;2024-01-30T04:08:23;100008.34;;;3.23;70.39
85315;BME280;75718;50.886;11.656;2024-01-30T04:10:48;100007.34;;;3.10;71.17
85315;BME280;75718;50.886;11.656;2024-01-30T04:13:14;100011.88;;;3.26;70.01
85315;BME280;75718;50.886;11.656;2024-01-30T04:15:39;100024.66;;;3.14;70.13
85315;BME280;75718;50.886;11.656;2024-01-30T04:18:04;100014.19;;;3.04;70.75
85315;BME280;75718;50.886;11.656;2024-01-30T04:20:30;100012.47;;;3.07;70.87
85315;BME280;75718;50.886;11.656;2024-01-30T04:22:55;100017.59;;;3.03;71.25
85315;BME280;75718;50.886;11.656;2024-01-30T04:25:20;100021.94;;;3.04;72.13
85315;BME280;75718;50.886;11.656;2024-01-30T04:27:46;100019.28;;;2.99;69.79
85315;BME280;75718;50.886;11.656;2024-01-30T04:30:11;100016.69;;;2.99;70.90
85315;BME280;75718;50.886;11.656;2024-01-30T04:32:36;100022.81;;;3.04;70.15
85315;BME280;75718;50.886;11.656;2024-01-30T04:35:02;100020.19;;;3.03;70.54
85315;BME280;75718;50.886;11.656;2024-01-30T04:37:28;100021.28;;;3.18;70.08
85315;BME280;75718;50.886;11.656;2024-01-30T04:39:53;100022.06;;;3.13;71.05
85315;BME280;75718;50.886;11.656;2024-01-30T04:42:18;100018.72;;;3.23;70.07
85315;BME280;75718;50.886;11.656;2024-01-30T04:44:44;100024.59;;;3.11;71.21
85315;BME280;75718;50.886;11.656;2024-01-30T04:47:09;100024.56;;;3.08;70.55
85315;BME280;75718;50.886;11.656;2024-01-30T04:49:38;100019.38;;;3.07;70.78
85315;BME280;75718;50.886;11.656;2024-01-30T04:52:04;100016.75;;;3.04;71.13
85315;BME280;75718;50.886;11.656;2024-01-30T04:54:29;100014.22;;;3.07;71.26
85315;BME280;75718;50.886;11.656;2024-01-30T04:56:54;100016.19;;;3.26;69.74
85315;BME280;75718;50.886;11.656;2024-01-30T04:59:20;100017.97;;;3.30;69.47
85315;BME280;75718;50.886;11.656;2024-01-30T05:01:46;100012.78;;;3.30;69.49
85315;BME280;75718;50.886;11.656;2024-01-30T05:04:11;100000.06;;;3.49;68.48
85315;BME280;75718;50.886;11.656;2024-01-30T05:06:36;100002.81;;;3.62;67.39
85315;BME280;75718;50.886;11.656;2024-01-30T05:09:01;100000.06;;;3.49;67.80
85315;BME280;75718;50.886;11.656;2024-01-30T05:11:27;100007.88;;;3.54;67.69
85315;BME280;75718;50.886;11.656;2024-01-30T05:13:52;100009.47;;;3.41;67.98
85315;BME280;75718;50.886;11.656;2024-01-30T05:16:17;100005.97;;;3.38;67.65
85315;BME280;75718;50.886;11.656;2024-01-30T05:18:43;100005.84;;;3.29;68.49
85315;BME280;75718;50.886;11.656;2024-01-30T05:21:08;100001.28;;;3.10;69.40
85315;BME280;75718;50.886;11.656;2024-01-30T05:23:34;100009.75;;;2.97;70.15
85315;BME280;75718;50.886;11.656;2024-01-30T05:25:59;100015.84;;;3.00;70.12
85315;BME280;75718;50.886;11.656;2024-01-30T05:28:26;100012.53;;;3.10;68.14
85315;BME280;75718;50.886;11.656;2024-01-30T05:30:51;100013.44;;;3.15;68.30
85315;BME280;75718;50.886;11.656;2024-01-30T05:33:16;100011.50;;;2.99;68.28
85315;BME280;75718;50.886;11.656;2024-01-30T05:35:42;100008.06;;;3.00;68.67
85315;BME280;75718;50.886;11.656;2024-01-30T05:38:07;100006.59;;;3.19;66.87
85315;BME280;75718;50.886;11.656;2024-01-30T05:40:32;100006.66;;;3.23;67.30
85315;BME280;75718;50.886;11.656;2024-01-30T05:42:57;100012.00;;;3.37;66.37
85315;BME280;75718;50.886;11.656;2024-01-30T05:45:27;100010.94;;;3.23;67.74
85315;BME280;75718;50.886;11.656;2024-01-30T05:47:53;100004.72;;;3.09;67.34
85315;BME280;75718;50.886;11.656;2024-01-30T05:50:19;100013.16;;;2.95;67.81
85315;BME280;75718;50.886;11.656;2024-01-30T05:52:44;100015.59;;;2.83;68.24
85315;BME280;75718;50.886;11.656;2024-01-30T05:55:09;100011.22;;;2.80;67.34
85315;BME280;75718;50.886;11.656;2024-01-30T05:57:36;100018.28;;;2.90;67.16
85315;BME280;75718;50.886;11.656;2024-01-30T06:00:02;100020.31;;;3.12;66.37
85315;BME280;75718;50.886;11.656;2024-01-30T06:02:28;100018.69;;;3.20;65.21
85315;BME280;75718;50.886;11.656;2024-01-30T06:04:54;100016.91;;;3.16;65.84
85315;BME280;75718;50.886;11.656;2024-01-30T06:07:19;100015.44;;;3.36;65.28
85315;BME280;75718;50.886;11.656;2024-01-30T06:09:44;100008.91;;;3.67;62.91
85315;BME280;75718;50.886;11.656;2024-01-30T06:12:11;100006.25;;;3.61;63.48
85315;BME280;75718;50.886;11.656;2024-01-30T06:14:37;100010.44;;;3.51;64.10
85315;BME280;75718;50.886;11.656;2024-01-30T06:17:02;100005.41;;;3.62;64.43
85315;BME280;75718;50.886;11.656;2024-01-30T06:19:28;100001.84;;;3.53;64.45
85315;BME280;75718;50.886;11.656;2024-01-30T06:21:53;100011.28;;;3.50;64.59
85315;BME280;75718;50.886;11.656;2024-01-30T06:24:18;100006.19;;;3.54;64.97
85315;BME280;75718;50.886;11.656;2024-01-30T06:26:44;100007.97;;;3.61;64.82
85315;BME280;75718;50.886;11.656;2024-01-30T06:29:09;100008.88;;;3.64;64.60
85315;BME280;75718;50.886;11.656;2024-01-30T06:31:42;100011.31;;;3.53;64.85
85315;BME280;75718;50.886;11.656;2024-01-30T06:34:08;100011.38;;;3.54;64.80
85315;BME280;75718;50.886;11.656;2024-01-30T06:36:34;100015.66;;;3.55;64.88
85315;BME280;75718;50.886;11.656;2024-01-30T06:38:59;100009.63;;;3.53;64.60
85315;BME280;75718;50.886;11.656;2024-01-30T06:41:24;100012.09;;;3.44;65.89
85315;BME280;75718;50.886;11.656;2024-01-30T06:43:50;100010.34;;;3.42;64.81
85315;BME280;75718;50.886;11.656;2024-01-30T06:46:15;100014.94;;;3.68;63.81
85315;BME280;75718;50.886;11.656;2024-01-30T06:48:40;100009.94;;;3.84;62.88
85315;BME280;75718;50.886;11.656;2024-01-30T06:51:06;100019.41;;;3.79;63.90
85315;BME280;75718;50.886;11.656;2024-01-30T06:53:31;100016.69;;;3.69;64.67
85315;BME280;75718;50.886;11.656;2024-01-30T06:55:57;100024.38;;;3.61;64.12
85315;BME280;75718;50.886;11.656;2024-01-30T06:58:22;100018.19;;;3.48;64.80
85315;BME280;75718;50.886;11.656;2024-01-30T07:00:47;100019.78;;;3.38;65.58
85315;BME280;75718;50.886;11.656;2024-01-30T07:03:13;100020.59;;;3.33;65.95
85315;BME280;75718;50.886;11.656;2024-01-30T07:05:38;100024.94;;;3.34;65.76
85315;BME280;75718;50.886;11.656;2024-01-30T07:08:03;100024.13;;;3.39;65.32
85315;BME280;75718;50.886;11.656;2024-01-30T07:10:29;100024.94;;;3.37;65.21
85315;BME280;75718;50.886;11.656;2024-01-30T07:12:54;100024.13;;;3.38;65.95
85315;BME280;75718;50.886;11.656;2024-01-30T07:15:19;100019.13;;;3.54;65.37
85315;BME280;75718;50.886;11.656;2024-01-30T07:17:45;100015.75;;;3.59;63.61
85315;BME280;75718;50.886;11.656;2024-01-30T07:20:11;100017.31;;;3.49;64.69
85315;BME280;75718;50.886;11.656;2024-01-30T07:22:36;100013.91;;;3.51;65.24
85315;BME280;75718;50.886;11.656;2024-01-30T07:25:02;100020.81;;;3.51;65.12
85315;BME280;75718;50.886;11.656;2024-01-30T07:27:27;100026.25;;;3.71;64.25
85315;BME280;75718;50.886;11.656;2024-01-30T07:29:52;100015.31;;;3.98;62.82
85315;BME280;75718;50.886;11.656;2024-01-30T07:32:17;100016.16;;;3.98;63.25
85315;BME280;75718;50.886;11.656;2024-01-30T07:34:43;100010.13;;;4.01;63.70
85315;BME280;75718;50.886;11.656;2024-01-30T07:37:09;100019.56;;;3.93;64.10
85315;BME280;75718;50.886;11.656;2024-01-30T07:39:35;100016.91;;;3.90;63.74
85315;BME280;75718;50.886;11.656;2024-01-30T07:42:01;100023.91;;;3.94;64.61
85315;BME280;75718;50.886;11.656;2024-01-30T07:44:26;100018.81;;;4.03;63.88
85315;BME280;75718;50.886;11.656;2024-01-30T07:46:51;100011.88;;;4.02;64.27
85315;BME280;75718;50.886;11.656;2024-01-30T07:49:16;100013.66;;;4.07;64.49
85315;BME280;75718;50.886;11.656;2024-01-30T07:51:42;100012.00;;;4.15;64.50
85315;BME280;75718;50.886;11.656;2024-01-30T07:54:08;100010.38;;;4.24;64.21
85315;BME280;75718;50.886;11.656;2024-01-30T07:56:33;100018.28;;;4.41;62.74
85315;BME280;75718;50.886;11.656;2024-01-30T07:58:58;100020.94;;;4.48;62.36
85315;BME280;75718;50.886;11.656;2024-01-30T08:01:23;100009.84;;;4.66;62.65
85315;BME280;75718;50.886;11.656;2024-01-30T08:03:49;100008.28;;;4.90;61.15
85315;BME280;75718;50.886;11.656;2024-01-30T08:06:14;100011.88;;;5.14;61.53
85315;BME280;75718;50.886;11.656;2024-01-30T08:08:39;100011.09;;;5.30;60.91
85315;BME280;75718;50.886;11.656;2024-01-30T08:11:05;100010.31;;;5.49;60.53
85315;BME280;75718;50.886;11.656;2024-01-30T08:13:30;100013.84;;;5.64;59.67
85315;BME280;75718;50.886;11.656;2024-01-30T08:15:55;100011.31;;;5.81;60.34
85315;BME280;75718;50.886;11.656;2024-01-30T08:18:21;100013.09;;;6.01;59.88
85315;BME280;75718;50.886;11.656;2024-01-30T08:20:46;100012.28;;;6.27;59.29
85315;BME280;75718;50.886;11.656;2024-01-30T08:23:11;100001.00;;;6.62;56.45
85315;BME280;75718;50.886;11.656;2024-01-30T08:25:36;100006.16;;;7.04;56.18
85315;BME280;75718;50.886;11.656;2024-01-30T08:28:02;99998.22;;;7.41;53.85
85315;BME280;75718;50.886;11.656;2024-01-30T08:30:27;99985.78;;;7.89;53.64
85315;BME280;75718;50.886;11.656;2024-01-30T08:32:52;99985.47;;;8.37;51.72
85315;BME280;75718;50.886;11.656;2024-01-30T08:35:18;99985.31;;;8.56;52.15
85315;BME280;75718;50.886;11.656;2024-01-30T08:37:43;99984.34;;;8.71;49.17
85315;BME280;75718;50.886;11.656;2024-01-30T08:40:08;99980.13;;;8.55;49.69
85315;BME280;75718;50.886;11.656;2024-01-30T08:42:34;99982.41;;;8.89;48.86
85315;BME280;75718;50.886;11.656;2024-01-30T08:44:59;99978.94;;;8.87;49.30
85315;BME280;75718;50.886;11.656;2024-01-30T08:47:24;99975.41;;;8.90;50.12
85315;BME280;75718;50.886;11.656;2024-01-30T08:49:50;99978.03;;;8.93;50.09
85315;BME280;75718;50.886;11.656;2024-01-30T08:52:16;99979.94;;;8.73;50.13
85315;BME280;75718;50.886;11.656;2024-01-30T08:54:41;99975.56;;;8.78;50.26
85315;BME280;75718;50.886;11.656;2024-01-30T08:57:06;99980.94;;;8.60;50.83
85315;BME280;75718;50.886;11.656;2024-01-30T08:59:31;99974.88;;;8.58;51.39
85315;BME280;75718;50.886;11.656;2024-01-30T09:01:57;99972.09;;;8.73;50.49
85315;BME280;75718;50.886;11.656;2024-01-30T09:04:24;99966.81;;;8.80;50.16
85315;BME280;75718;50.886;11.656;2024-01-30T09:06:49;99963.31;;;8.81;50.87
85315;BME280;75718;50.886;11.656;2024-01-30T09:09:15;99968.47;;;8.87;51.36
85315;BME280;75718;50.886;11.656;2024-01-30T09:11:40;99964.97;;;8.90;51.21
85315;BME280;75718;50.886;11.656;2024-01-30T09:14:06;99963.16;;;8.96;50.55
85315;BME280;75718;50.886;11.656;2024-01-30T09:16:31;99969.28;;;8.92;51.50
85315;BME280;75718;50.886;11.656;2024-01-30T09:18:56;99975.63;;;8.70;51.53
85315;BME280;75718;50.886;11.656;2024-01-30T09:21:22;99973.03;;;8.69;51.22
85315;BME280;75718;50.886;11.656;2024-01-30T09:23:47;99976.50;;;8.69;51.14
85315;BME280;75718;50.886;11.656;2024-01-30T09:26:12;99973.78;;;8.78;50.80
85315;BME280;75718;50.886;11.656;2024-01-30T09:28:38;99977.94;;;8.98;50.85
85315;BME280;75718;50.886;11.656;2024-01-30T09:31:03;99969.94;;;9.13;50.68
85315;BME280;75718;50.886;11.656;2024-01-30T09:33:29;99958.25;;;9.41;49.51
85315;BME280;75718;50.886;11.656;2024-01-30T09:35:54;99966.72;;;9.62;49.14
85315;BME280;75718;50.886;11.656;2024-01-30T09:38:19;99959.59;;;10.35;48.58
85315;BME280;75718;50.886;11.656;2024-01-30T09:40:50;99958.94;;;10.71;47.12
85315;BME280;75718;50.886;11.656;2024-01-30T09:43:22;99956.91;;;10.87;46.78
85315;BME280;75718;50.886;11.656;2024-01-30T09:45:48;99964.38;;;11.08;46.85
85315;BME280;75718;50.886;11.656;2024-01-30T09:48:15;99954.34;;;11.28;46.16
85315;BME280;75718;50.886;11.656;2024-01-30T09:50:40;99954.91;;;11.43;46.50
85315;BME280;75718;50.886;11.656;2024-01-30T09:53:07;99954.97;;;11.40;46.40
85315;BME280;75718;50.886;11.656;2024-01-30T09:55:33;99953.06;;;11.50;46.48
85315;BME280;75718;50.886;11.656;2024-01-30T09:57:59;99958.41;;;11.00;46.82
85315;BME280;75718;50.886;11.656;2024-01-30T10:00:25;99964.78;;;10.87;48.69
85315;BME280;75718;50.886;11.656;2024-01-30T10:02:52;99955.38;;;11.21;48.03
85315;BME280;75718;50.886;11.656;2024-01-30T10:05:18;99961.63;;;11.14;47.49
85315;BME280;75718;50.886;11.656;2024-01-30T10:07:52;99957.22;;;11.16;47.56
85315;BME280;75718;50.886;11.656;2024-01-30T10:10:18;99950.03;;;11.27;47.80
85315;BME280;75718;50.886;11.656;2024-01-30T10:12:43;99957.13;;;11.21;48.68
85315;BME280;75718;50.886;11.656;2024-01-30T10:15:09;99934.81;;;11.41;47.76
85315;BME280;75718;50.886;11.656;2024-01-30T10:17:37;99937.97;;;11.61;47.15
85315;BME280;75718;50.886;11.656;2024-01-30T10:20:04;99927.09;;;12.13;45.93
85315;BME280;75718;50.886;11.656;2024-01-30T10:22:30;99930.28;;;11.90;47.94
85315;BME280;75718;50.886;11.656;2024-01-30T10:24:55;99929.25;;;11.57;48.60
85315;BME280;75718;50.886;11.656;2024-01-30T10:27:27;99940.38;;;11.28;49.58
85315;BME280;75718;50.886;11.656;2024-01-30T10:29:52;99940.06;;;11.00;49.42
85315;BME280;75718;50.886;11.656;2024-01-30T10:32:19;99934.56;;;10.67;50.28
85315;BME280;75718;50.886;11.656;2024-01-30T10:34:44;99934.09;;;10.43;51.62
85315;BME280;75718;50.886;11.656;2024-01-30T10:37:11;99937.41;;;10.54;51.24
85315;BME280;75718;50.886;11.656;2024-01-30T10:39:43;99929.66;;;10.94;52.43
85315;BME280;75718;50.886;11.656;2024-01-30T10:42:15;99920.84;;;11.40;49.92
85315;BME280;75718;50.886;11.656;2024-01-30T10:45:02;99913.03;;;11.78;48.73
85315;BME280;75718;50.886;11.656;2024-01-30T10:47:30;99906.03;;;12.50;48.84
85315;BME280;75718;50.886;11.656;2024-01-30T10:49:56;99903.97;;;12.94;46.65
85315;BME280;75718;50.886;11.656;2024-01-30T10:52:25;99904.22;;;12.86;46.69
85315;BME280;75718;50.886;11.656;2024-01-30T10:54:51;99908.25;;;12.99;45.46
85315;BME280;75718;50.886;11.656;2024-01-30T10:57:17;99906.00;;;13.16;45.89
85315;BME280;75718;50.886;11.656;2024-01-30T10:59:43;99898.34;;;13.66;45.45
85315;BME280;75718;50.886;11.656;2024-01-30T11:02:10;99891.34;;;14.21;43.84
85315;BME280;75718;50.886;11.656;2024-01-30T11:04:37;99894.06;;;14.45;44.04
85315;BME280;75718;50.886;11.656;2024-01-30T11:07:14;99894.47;;;14.59;43.31
85315;BME280;75718;50.886;11.656;2024-01-30T11:09:40;99896.09;;;14.38;42.93
85315;BME280;75718;50.886;11.656;2024-01-30T11:12:12;99896.94;;;14.64;43.57
85315;BME280;75718;50.886;11.656;2024-01-30T11:17:06;99898.38;;;14.21;45.00
85315;BME280;75718;50.886;11.656;2024-01-30T11:19:32;99891.97;;;14.29;44.72
85315;BME280;75718;50.886;11.656;2024-01-30T11:21:57;99904.00;;;14.38;44.62
85315;BME280;75718;50.886;11.656;2024-01-30T11:24:23;99894.16;;;13.59;45.67
85315;BME280;75718;50.886;11.656;2024-01-30T11:26:56;99890.28;;;13.71;45.99
85315;BME280;75718;50.886;11.656;2024-01-30T11:29:27;99891.41;;;13.64;46.10
85315;BME280;75718;50.886;11.656;2024-01-30T11:31:57;99880.25;;;13.83;44.74
85315;BME280;75718;50.886;11.656;2024-01-30T11:34:23;99876.78;;;13.54;45.95
85315;BME280;75718;50.886;11.656;2024-01-30T11:36:52;99870.81;;;13.47;46.06
85315;BME280;75718;50.886;11.656;2024-01-30T11:39:24;99875.19;;;13.18;46.70
85315;BME280;75718;50.886;11.656;2024-01-30T11:41:53;99873.13;;;12.99;46.88
85315;BME280;75718;50.886;11.656;2024-01-30T11:44:19;99867.13;;;12.95;48.87
85315;BME280;75718;50.886;11.656;2024-01-30T11:46:46;99869.75;;;12.62;48.48
85315;BME280;75718;50.886;11.656;2024-01-30T11:49:11;99866.03;;;12.69;49.10
85315;BME280;75718;50.886;11.656;2024-01-30T11:51:37;99860.84;;;12.67;49.24
85315;BME280;75718;50.886;11.656;2024-01-30T11:54:03;99857.44;;;12.96;48.49
85315;BME280;75718;50.886;11.656;2024-01-30T11:56:28;99850.22;;;12.70;49.11
85315;BME280;75718;50.886;11.656;2024-01-30T11:58:53;99859.13;;;12.65;50.36
85315;BME280;75718;50.886;11.656;2024-01-30T12:01:19;99853.03;;;12.64;49.79
85315;BME280;75718;50.886;11.656;2024-01-30T12:03:51;99868.88;;;12.61;49.78
85315;BME280;75718;50.886;11.656;2024-01-30T12:06:16;99858.81;;;12.77;49.32
85315;BME280;75718;50.886;11.656;2024-01-30T12:08:42;99853.59;;;12.75;50.29
85315;BME280;75718;50.886;11.656;2024-01-30T12:11:07;99851.19;;;13.00;48.93
85315;BME280;75718;50.886;11.656;2024-01-30T12:13:33;99846.59;;;13.06;49.42
85315;BME280;75718;50.886;11.656;2024-01-30T12:16:00;99835.69;;;13.20;49.12
85315;BME280;75718;50.886;11.656;2024-01-30T12:18:26;99843.00;;;13.39;48.47
85315;BME280;75718;50.886;11.656;2024-01-30T12:21:00;99841.38;;;13.35;48.27
85315;BME280;75718;50.886;11.656;2024-01-30T12:23:27;99843.47;;;13.51;48.23
85315;BME280;75718;50.886;11.656;2024-01-30T12:25:53;99835.22;;;13.63;48.93
85315;BME280;75718;50.886;11.656;2024-01-30T12:28:20;99847.72;;;13.55;48.97
85315;BME280;75718;50.886;11.656;2024-01-30T12:30:45;99836.50;;;13.21;48.82
85315;BME280;75718;50.886;11.656;2024-01-30T12:33:16;99840.69;;;13.28;49.38
85315;BME280;75718;50.886;11.656;2024-01-30T12:35:45;99835.41;;;13.28;49.93
85315;BME280;75718;50.886;11.656;2024-01-30T12:38:11;99831.09;;;13.26;50.09
85315;BME280;75718;50.886;11.656;2024-01-30T12:40:36;99835.44;;;13.27;50.81
85315;BME280;75718;50.886;11.656;2024-01-30T12:43:02;99832.06;;;13.23;50.62
85315;BME280;75718;50.886;11.656;2024-01-30T12:45:28;99841.31;;;13.36;49.91